METAR Data
IDs: Format: Raw Decoded Include TAF

Data at: 0822 UTC 20 Sep 2018

PAMC 200753Z AUTO 20008KT 10SM -RA OVC019 09/08 A3014 RMK AO2 RAB42 SLP211 T00940083 TSNO PNO $
PAMC 200653Z AUTO 20006KT 10SM FEW011 OVC023 09/08 A3015 RMK AO2 RAE41 SLP213 T00940083 TSNO PNO $
PAMC 200623Z AUTO VRB05KT 10SM -RA FEW011 BKN023 OVC049 09/08 A3015 RMK AO2 T00940083 TSNO PNO $
PAMC 200553Z AUTO 20007KT 8SM -RA FEW037 OVC049 09/08 A3015 RMK AO2 SLP214 6//// T00940083 10100 20094 57005 TSNO PNO $
PAMC 200453Z AUTO 20004KT 10SM -RA SCT035 OVC050 09/08 A3015 RMK AO2 SLP215 T00940083 TSNO PNO $
PAMC 200353Z AUTO 19006KT 10SM -RA FEW017 SCT041 OVC055 09/08 A3016 RMK AO2 SLP218 T00940083 TSNO PNO $
PAMC 200253Z AUTO 19005KT 10SM -RA OVC055 09/08 A3016 RMK AO2 SLP219 6//// T00940083 56009 TSNO PNO $
PAMC 200153Z 19006KT 5SM -RA BR FEW024 SCT034 OVC050 09/08 A3017 RMK AO2 SLP222 T00940083 PNO $
PAMC 200053Z 18006KT 5SM -RA BR BKN015 BKN021 OVC034 10/08 A3018 RMK AO2 SLP224 T01000083 PNO $
PAMC 200036Z 17007KT 5SM -RA BR SCT015 BKN023 OVC034 10/08 A3018 RMK AO2 T01000083 PNO $
PAMC 192353Z 18007KT 6SM -RA BR FEW025 BKN037 OVC070 10/08 A3019 RMK AO2 RAB27 SLP228 6//// T01000083 10100 20078 56008 PNO $
PAMC 192253Z 19006KT 10SM FEW015 BKN025 OVC065 09/08 A3020 RMK AO2 RAE45 SLP230 T00940083 PNO $
PAMC 192153Z 19006KT 10SM -RA SCT021 BKN028 OVC060 09/08 A3020 RMK AO2 RAB00 SLP232 T00940083 PNO $
PAMC 192053Z 17005KT 10SM SCT010 OVC016 09/08 A3021 RMK AO2 SLP236 6//// T00890078 58007 PNO $
PAMC 191953Z 17006KT 10SM OVC012 08/07 A3022 RMK AO2 RAE43 SLP239 T00830072 PNO $
PAMC 191841Z 17004KT 10SM -RA BKN012 OVC018 08/07 A3023 RMK AO2 T00780067 PNO $
PAMC 191753Z 18003KT 10SM -RA SCT018 OVC024 08/06 A3024 RMK AO2 RAB12 SLP243 6//// T00780061 10078 20067 56002 PNO $
PAMC 191713Z 17004KT 10SM -RA BKN026 OVC045 07/06 A3024 RMK AO2 RAB12 T00720061 PNO $
PAMC 191653Z 00000KT 10SM FEW024 BKN047 OVC055 07/06 A3024 RMK AO2 RAE22 SLP243 T00720061 PNO $
PAMC 191553Z AUTO 14004KT 10SM -RA BKN044 OVC055 07/06 A3024 RMK AO2 RAE13B34 SLP244 T00720061 TSNO PNO $
PAMC 191453Z AUTO 00000KT 10SM -RA BKN060 OVC080 07/06 A3024 RMK AO2 RAB28 SLP245 6//// T00720061 55003 TSNO PNO $
PAMC 191353Z AUTO 00000KT 10SM SCT050 BKN060 OVC090 07/06 A3024 RMK AO2 SLP244 T00720061 TSNO
PAMC 191253Z AUTO 00000KT 10SM SCT047 OVC110 07/07 A3024 RMK AO2 SLP246 T00720067 TSNO
PAMC 191153Z AUTO 00000KT 10SM SCT050 OVC110 07/06 A3025 RMK AO2 SLP249 60002 7//// T00720061 10106 20072 58001 TSNO
PAMC 191053Z AUTO 00000KT 10SM OVC055 07/07 A3025 RMK AO2 SLP250 T00720067 TSNO
PAMC 190853Z AUTO 00000KT 10SM OVC060 07/07 A3025 RMK AO2 SLP250 60002 T00720067 401280039 53003 TSNO
PAMC 190753Z AUTO 00000KT 10SM BKN065 08/07 A3025 RMK AO2 SLP247 T00830072 TSNO
PAMC 190653Z AUTO 00000KT 10SM SCT030 OVC065 10/07 A3024 RMK AO2 SLP246 P0002 T01000067 TSNO
PAMC 190630Z AUTO 29003KT 10SM BKN029 OVC047 10/07 A3024 RMK AO2 P0002 T01000072 TSNO
PAMC 190553Z AUTO VRB04KT 10SM FEW026 BKN033 OVC043 11/08 A3024 RMK AO2 RAB02E28 SLP247 P0006 60006 T01060078 10128 20106 53006 TSNO
PAMC 190546Z AUTO 00000KT 10SM BKN030 OVC034 11/08 A3024 RMK AO2 RAB02E28 P0006 T01060083 TSNO
PAMC 190535Z AUTO 27004KT 10SM BKN028 OVC035 11/08 A3024 RMK AO2 RAB02E28 P0005 T01060083 TSNO
PAMC 190453Z AUTO 28007KT 10SM OVC023 11/08 A3024 RMK AO2 SLP244 T01060083 TSNO
PAMC 190353Z AUTO 31004KT 10SM BKN020 BKN031 OVC044 11/09 A3023 RMK AO2 SLP241 T01110089 TSNO
PAMC 190350Z AUTO 31005KT 10SM SCT020 BKN024 OVC044 12/08 A3023 RMK AO2 TSNO
PAMC 190253Z AUTO 24004KT 10SM FEW022 SCT031 OVC065 13/08 A3022 RMK AO2 SLP238 T01280083 58001 TSNO
PAMC 190243Z AUTO 23005KT 10SM SCT031 OVC060 13/08 A3022 RMK AO2 T01280083 TSNO
PAMC 190153Z AUTO VRB03KT 10SM SCT019 BKN023 OVC033 13/09 A3022 RMK AO2 SLP239 T01280094 TSNO
PAMC 190149Z AUTO 00000KT 10SM BKN019 BKN026 OVC033 13/09 A3022 RMK AO2 TSNO
PAMC 190136Z AUTO 00000KT 10SM SCT019 BKN030 OVC035 13/09 A3022 RMK AO2 T01280089 TSNO
PAMC 190053Z AUTO 00000KT 10SM BKN022 OVC028 13/09 A3022 RMK AO2 SLP239 T01280094 TSNO
PAMC 182353Z AUTO 13004KT 10SM OVC025 12/09 A3023 RMK AO2 SLP242 6//// T01220094 10122 20061 58003 TSNO
PAMC 182335Z AUTO 11004KT 10SM BKN027 OVC060 12/09 A3023 RMK AO2 T01170089 TSNO
PAMC 182253Z 13004KT 10SM SCT015 OVC060 11/09 A3024 RMK AO2 RAB19E30 SLP244 P0000 T01110094
PAMC 182153Z 13003KT 10SM SCT015 OVC039 10/09 A3024 RMK AO2 RAB07E33 SLP246 VCFG VCSH T01000089 PNO $
PAMC 182053Z 00000KT 10SM OVC039 09/09 A3024 RMK AO2 RAB14E23 SLP245 VCFG VIS 1 S FG 6//// T00940089 52004 PNO $